CPX663 Details

Departure: Orlando International Airport (KMCO)
Arrival: Miami International Airport (KMIA)
Route: MLB ANNEY4


Current Weather Information
KMCO 232253Z 06013KT 10SM FEW041 27/18 A3014 RMK AO2 SLP206 T02720178
KMIA 232253Z 06013G21KT 10SM SCT033 BKN045 28/19 A3007 RMK AO2 SLP183 T02830194